createdAt,value
2018-04-07T00:00:21.704Z,16.20
2018-04-07T00:02:49.135Z,16.40
2018-04-07T00:05:17.354Z,16.30
2018-04-07T00:07:44.917Z,16.30
2018-04-07T00:10:12.357Z,16.40
2018-04-07T00:12:39.812Z,16.20
2018-04-07T00:15:07.252Z,16.30
2018-04-07T00:17:34.720Z,16.30
2018-04-07T00:20:02.157Z,16.10
2018-04-07T00:22:30.383Z,15.60
2018-04-07T00:24:58.746Z,15.60
2018-04-07T00:27:26.181Z,15.60
2018-04-07T00:29:53.625Z,15.80
2018-04-07T00:32:21.841Z,15.60
2018-04-07T00:34:49.277Z,15.60
2018-04-07T00:37:16.717Z,15.50
2018-04-07T00:39:44.921Z,15.60
2018-04-07T00:42:12.369Z,15.60
2018-04-07T00:44:39.834Z,15.80
2018-04-07T00:47:07.310Z,15.70
2018-04-07T00:49:34.752Z,15.50
2018-04-07T00:52:02.205Z,15.80
2018-04-07T00:54:29.643Z,15.90
2018-04-07T00:56:57.072Z,15.80
2018-04-07T00:59:24.719Z,15.70
2018-04-07T01:01:52.145Z,15.80
2018-04-07T01:04:19.597Z,15.80
2018-04-07T01:06:47.046Z,15.90
2018-04-07T01:09:14.482Z,16.10
2018-04-07T01:11:42.685Z,15.90
2018-04-07T01:14:10.125Z,15.80
2018-04-07T01:16:37.571Z,15.90
2018-04-07T01:19:05.900Z,16.00
2018-04-07T01:21:33.345Z,15.90
2018-04-07T01:24:00.808Z,15.90
2018-04-07T01:26:28.235Z,15.70
2018-04-07T01:28:55.664Z,15.60
2018-04-07T01:31:23.894Z,15.90
2018-04-07T01:33:51.360Z,15.90
2018-04-07T01:36:18.801Z,16.10
2018-04-07T01:38:46.261Z,16.10
2018-04-07T01:41:13.725Z,16.00
2018-04-07T01:43:41.169Z,16.00
2018-04-07T01:46:08.648Z,16.00
2018-04-07T01:48:36.803Z,15.90
2018-04-07T01:51:04.475Z,15.80
2018-04-07T01:53:31.923Z,15.80
2018-04-07T01:55:59.402Z,15.50
2018-04-07T01:58:26.862Z,15.70
2018-04-07T02:00:54.309Z,15.90
2018-04-07T02:03:21.740Z,15.90
2018-04-07T02:05:49.197Z,15.60
2018-04-07T02:08:16.633Z,15.60
2018-04-07T02:10:44.981Z,15.40
2018-04-07T02:13:12.434Z,15.30
2018-04-07T02:15:39.898Z,15.40
2018-04-07T02:18:07.339Z,15.40
2018-04-07T02:20:34.792Z,15.30
2018-04-07T02:23:02.221Z,15.40
2018-04-07T02:25:29.696Z,15.20
2018-04-07T02:27:57.147Z,15.30
2018-04-07T02:30:24.683Z,15.20
2018-04-07T02:32:52.888Z,15.10
2018-04-07T02:35:20.316Z,15.10
2018-04-07T02:37:48.519Z,14.60
2018-04-07T02:40:15.970Z,14.60
2018-04-07T02:42:43.409Z,14.60
2018-04-07T02:45:11.609Z,14.70
2018-04-07T02:47:39.050Z,14.70
2018-04-07T02:50:06.488Z,14.70
2018-04-07T02:52:34.712Z,14.40
2018-04-07T02:55:02.932Z,14.30
2018-04-07T02:57:31.138Z,14.30
2018-04-07T02:59:59.180Z,14.30
2018-04-07T03:02:27.382Z,14.10
2018-04-07T03:04:54.832Z,14.00
2018-04-07T03:07:22.260Z,13.90
2018-04-07T03:09:49.718Z,13.90
2018-04-07T03:12:17.157Z,14.10
2018-04-07T03:14:44.590Z,14.30
2018-04-07T03:17:12.048Z,14.40
2018-04-07T03:19:39.512Z,14.40
2018-04-07T03:22:06.960Z,14.40
2018-04-07T03:24:34.436Z,14.30
2018-04-07T03:27:01.902Z,14.10
2018-04-07T03:29:29.360Z,14.00
2018-04-07T03:31:56.949Z,13.80
2018-04-07T03:34:25.153Z,13.90
2018-04-07T03:36:52.614Z,13.90
2018-04-07T03:39:20.050Z,14.00
2018-04-07T03:41:48.265Z,14.00
2018-04-07T03:44:15.700Z,14.00
2018-04-07T03:46:43.141Z,14.10
2018-04-07T03:49:11.357Z,14.20
2018-04-07T03:51:38.804Z,14.20
2018-04-07T03:54:06.244Z,14.10
2018-04-07T03:56:33.695Z,14.10
2018-04-07T03:59:01.125Z,14.00
2018-04-07T04:01:29.339Z,13.90
2018-04-07T04:03:56.913Z,13.90
2018-04-07T04:06:24.375Z,13.80
2018-04-07T04:08:51.805Z,13.80
2018-04-07T04:11:19.256Z,13.70
2018-04-07T04:13:46.726Z,13.70
2018-04-07T04:16:14.184Z,13.40
2018-04-07T04:18:42.165Z,13.50
2018-04-07T04:21:09.604Z,13.50
2018-04-07T04:23:37.207Z,13.50
2018-04-07T04:26:04.640Z,13.80
2018-04-07T04:28:32.087Z,13.70
2018-04-07T04:30:59.530Z,13.80
2018-04-07T04:33:26.979Z,13.90
2018-04-07T04:35:55.198Z,14.30
2018-04-07T04:38:22.632Z,14.20
2018-04-07T04:40:50.093Z,14.30
2018-04-07T04:43:17.535Z,14.30
2018-04-07T04:45:45.750Z,14.50
2018-04-07T04:48:13.198Z,14.50
2018-04-07T04:50:40.736Z,14.50
2018-04-07T04:53:08.940Z,14.70
2018-04-07T04:55:36.386Z,14.70
2018-04-07T04:58:03.846Z,14.70
2018-04-07T05:00:31.277Z,14.70
2018-04-07T05:02:59.410Z,14.60
2018-04-07T05:05:26.878Z,14.50
2018-04-07T05:07:54.324Z,14.30
2018-04-07T05:10:21.788Z,14.30
2018-04-07T05:12:49.249Z,14.30
2018-04-07T05:15:16.686Z,14.30
2018-04-07T05:17:44.798Z,14.30
2018-04-07T05:20:13.011Z,14.20
2018-04-07T05:22:40.452Z,14.20
2018-04-07T05:25:07.892Z,14.20
2018-04-07T05:27:36.125Z,14.20
2018-04-07T05:30:03.605Z,14.20
2018-04-07T05:32:31.067Z,14.20
2018-04-07T05:35:00.070Z,14.20
2018-04-07T05:37:28.283Z,14.20
2018-04-07T05:39:56.803Z,14.10
2018-04-07T05:42:24.951Z,14.20
2018-04-07T05:44:52.381Z,14.10
2018-04-07T05:47:19.842Z,14.20
2018-04-07T05:49:47.288Z,14.20
2018-04-07T05:52:15.487Z,14.20
2018-04-07T05:54:42.933Z,14.20
2018-04-07T05:57:10.371Z,14.20
2018-04-07T05:59:38.581Z,14.40
2018-04-07T06:02:06.039Z,14.30
2018-04-07T06:04:33.474Z,14.50
2018-04-07T06:07:00.917Z,14.70
2018-04-07T06:09:29.123Z,15.30
2018-04-07T06:11:56.609Z,15.30
2018-04-07T06:14:24.204Z,15.70
2018-04-07T06:16:52.410Z,16.50
2018-04-07T06:19:19.864Z,16.50
2018-04-07T06:21:47.354Z,16.80
2018-04-07T06:24:14.793Z,17.10
2018-04-07T06:26:42.245Z,17.30
2018-04-07T06:29:09.692Z,17.60
2018-04-07T06:31:37.129Z,18.20
2018-04-07T06:34:05.362Z,19.40
2018-04-07T06:36:32.797Z,19.30
2018-04-07T06:39:00.245Z,19.90
2018-04-07T06:41:27.702Z,20.30
2018-04-07T06:43:55.135Z,20.70
2018-04-07T06:46:23.357Z,22.00
2018-04-07T06:48:50.810Z,22.00
2018-04-07T06:51:18.422Z,22.80
2018-04-07T06:53:45.922Z,23.70
2018-04-07T06:56:13.369Z,24.90
2018-04-07T06:58:40.801Z,26.00
2018-04-07T07:01:09.010Z,27.70
2018-04-07T07:03:36.489Z,27.60
2018-04-07T07:06:03.926Z,27.90
2018-04-07T07:08:31.357Z,28.00
2018-04-07T07:11:00.476Z,27.60
2018-04-07T07:13:27.917Z,27.50
2018-04-07T07:15:56.120Z,25.60
2018-04-07T07:18:23.573Z,25.50
2018-04-07T07:20:51.256Z,24.90
2018-04-07T07:23:18.691Z,24.50
2018-04-07T07:25:46.126Z,24.60
2018-04-07T07:28:13.578Z,24.00
2018-04-07T07:30:41.769Z,24.10
2018-04-07T07:33:09.216Z,24.00
2018-04-07T07:35:36.642Z,24.20
2018-04-07T07:38:04.100Z,23.60
2018-04-07T07:40:31.536Z,23.60
2018-04-07T07:42:59.764Z,23.40
2018-04-07T07:45:27.214Z,23.20
2018-04-07T07:47:55.450Z,22.80
2018-04-07T07:50:22.884Z,22.80
2018-04-07T07:52:50.327Z,22.60
2018-04-07T07:55:17.761Z,23.00
2018-04-07T07:57:46.008Z,24.00
2018-04-07T08:00:14.188Z,24.30
2018-04-07T08:02:41.642Z,24.30
2018-04-07T08:05:09.078Z,25.30
2018-04-07T08:07:36.533Z,25.40
2018-04-07T08:10:03.978Z,25.70
2018-04-07T08:12:31.437Z,25.70
2018-04-07T08:14:59.810Z,24.90
2018-04-07T08:17:27.271Z,25.20
2018-04-07T08:19:54.697Z,25.80
2018-04-07T08:22:23.157Z,26.50
2018-04-07T08:24:50.610Z,26.60
2018-04-07T08:27:18.038Z,26.70
2018-04-07T08:29:46.045Z,26.80
2018-04-07T08:32:15.210Z,27.80
2018-04-07T08:34:42.628Z,27.80
2018-04-07T08:37:14.776Z,28.60
2018-04-07T08:39:37.544Z,28.90
2018-04-07T08:42:05.767Z,28.50
2018-04-07T08:44:33.207Z,28.40
2018-04-07T08:47:00.658Z,28.70
2018-04-07T08:49:28.106Z,29.00
2018-04-07T08:51:55.543Z,29.50
2018-04-07T08:54:22.990Z,30.50
2018-04-07T08:56:51.201Z,31.80
2018-04-07T08:59:18.694Z,31.80
2018-04-07T09:01:46.123Z,33.80
2018-04-07T09:04:13.557Z,35.30
2018-04-07T09:06:41.000Z,35.20
2018-04-07T09:09:09.208Z,33.80
2018-04-07T09:11:36.668Z,33.80
2018-04-07T09:14:04.116Z,32.90
2018-04-07T09:16:31.589Z,31.50
2018-04-07T09:18:59.839Z,31.20
2018-04-07T09:21:27.260Z,29.80
2018-04-07T09:23:55.502Z,28.10
2018-04-07T09:26:22.936Z,28.00
2018-04-07T09:28:50.369Z,27.30
2018-04-07T09:31:23.437Z,26.80
2018-04-07T09:33:51.645Z,26.00
2018-04-07T09:36:19.073Z,26.00
2018-04-07T09:38:47.292Z,26.40
2018-04-07T09:41:14.724Z,26.40
2018-04-07T09:43:42.935Z,26.20
2018-04-07T09:46:10.371Z,26.20
2018-04-07T09:48:37.818Z,26.10
2018-04-07T09:51:05.257Z,26.10
2018-04-07T09:53:33.473Z,27.10
2018-04-07T09:56:00.939Z,27.10
2018-04-07T09:58:28.368Z,27.30
2018-04-07T10:00:55.826Z,27.70
2018-04-07T10:03:23.281Z,28.20
2018-04-07T10:05:50.712Z,27.90
2018-04-07T10:08:18.930Z,27.10
2018-04-07T10:10:46.369Z,27.10
2018-04-07T10:13:13.814Z,26.80
2018-04-07T10:15:42.469Z,26.90
2018-04-07T10:18:09.885Z,27.00
2018-04-07T10:20:37.318Z,27.30
2018-04-07T10:23:05.529Z,27.40
2018-04-07T10:25:33.016Z,27.30
2018-04-07T10:28:00.446Z,27.40
2018-04-07T10:30:27.894Z,27.50
2018-04-07T10:32:55.315Z,26.90
2018-04-07T10:35:24.313Z,27.20
2018-04-07T10:37:52.534Z,27.70
2018-04-07T10:40:20.145Z,27.70
2018-04-07T10:42:48.419Z,28.50
2018-04-07T10:45:15.882Z,28.50
2018-04-07T10:47:44.077Z,29.50
2018-04-07T10:50:11.521Z,29.50
2018-04-07T10:52:39.867Z,29.80
2018-04-07T10:55:07.309Z,29.70
2018-04-07T10:57:34.757Z,29.90
2018-04-07T11:00:02.204Z,29.60
2018-04-07T11:05:02.576Z,28.90
2018-04-07T11:07:30.777Z,29.40
2018-04-07T11:09:58.230Z,29.30
2018-04-07T11:12:25.670Z,29.50
2018-04-07T11:14:53.105Z,29.60
2018-04-07T11:17:20.567Z,29.80
2018-04-07T11:19:47.989Z,29.40
2018-04-07T11:22:15.431Z,29.70
2018-04-07T11:24:43.650Z,29.50
2018-04-07T11:27:11.137Z,29.40
2018-04-07T11:29:38.593Z,29.20
2018-04-07T11:32:06.030Z,29.30
2018-04-07T11:34:34.497Z,29.10
2018-04-07T11:37:02.762Z,28.90
2018-04-07T11:39:30.204Z,29.00
2018-04-07T11:41:58.406Z,29.40
2018-04-07T11:44:25.849Z,29.40
2018-04-07T11:46:53.288Z,29.30
2018-04-07T11:49:21.802Z,28.20
2018-04-07T11:51:49.269Z,28.20
2018-04-07T11:54:16.721Z,28.00
2018-04-07T11:56:44.149Z,28.20
2018-04-07T11:59:11.599Z,28.70
2018-04-07T12:01:39.815Z,29.70
2018-04-07T12:04:07.278Z,29.70
2018-04-07T12:06:34.733Z,29.60
2018-04-07T12:09:02.192Z,29.80
2018-04-07T12:11:29.713Z,30.10
2018-04-07T12:13:57.079Z,30.60
2018-04-07T12:16:24.534Z,30.90
2018-04-07T12:18:52.498Z,31.10
2018-04-07T12:21:20.734Z,30.40
2018-04-07T12:23:48.167Z,30.40
2018-04-07T12:26:15.622Z,30.00
2018-04-07T12:28:43.075Z,29.60
2018-04-07T12:31:10.548Z,29.40
2018-04-07T12:33:37.979Z,29.30
2018-04-07T12:36:05.429Z,29.50
2018-04-07T12:38:32.900Z,29.30
2018-04-07T12:41:00.387Z,29.10
2018-04-07T12:43:27.823Z,29.60
2018-04-07T12:45:55.270Z,30.20
2018-04-07T12:48:22.732Z,30.40
2018-04-07T12:50:50.182Z,30.30
2018-04-07T12:53:17.621Z,30.50
2018-04-07T12:55:45.837Z,30.40
2018-04-07T12:58:13.273Z,30.40
2018-04-07T13:00:40.745Z,30.30
2018-04-07T13:03:08.208Z,30.20
2018-04-07T13:05:35.646Z,30.30
2018-04-07T13:08:03.084Z,30.20
2018-04-07T13:10:31.310Z,30.60
2018-04-07T13:12:58.743Z,30.60
2018-04-07T13:15:26.182Z,30.70
2018-04-07T13:17:53.704Z,30.40
2018-04-07T13:20:21.161Z,30.00
2018-04-07T13:22:49.091Z,29.70
2018-04-07T13:25:16.541Z,30.00
2018-04-07T13:27:43.997Z,30.40
2018-04-07T13:30:11.440Z,30.00
2018-04-07T13:32:38.902Z,29.80
2018-04-07T13:35:06.349Z,29.70
2018-04-07T13:37:33.791Z,29.90
2018-04-07T13:40:02.108Z,29.30
2018-04-07T13:42:29.558Z,29.30
2018-04-07T13:44:57.005Z,29.30
2018-04-07T13:47:24.443Z,29.40
2018-04-07T13:49:52.644Z,29.60
2018-04-07T13:52:20.084Z,29.60
2018-04-07T13:54:47.537Z,29.20
2018-04-07T13:57:15.758Z,29.80
2018-04-07T13:59:43.231Z,29.80
2018-04-07T14:02:10.630Z,29.30
2018-04-07T14:04:38.831Z,29.50
2018-04-07T14:07:06.278Z,29.50
2018-04-07T14:09:33.722Z,29.90
2018-04-07T14:12:01.999Z,30.10
2018-04-07T14:14:29.515Z,30.10
2018-04-07T14:16:56.945Z,29.80
2018-04-07T14:19:24.376Z,29.40
2018-04-07T14:21:53.477Z,29.40
2018-04-07T14:24:20.908Z,29.40
2018-04-07T14:29:23.114Z,29.50
2018-04-07T14:31:50.568Z,29.30
2018-04-07T14:34:18.016Z,29.10
2018-04-07T14:36:46.229Z,29.00
2018-04-07T14:39:13.685Z,29.00
2018-04-07T14:41:41.127Z,28.70
2018-04-07T14:44:08.577Z,28.70
2018-04-07T14:46:36.695Z,28.60
2018-04-07T14:49:04.898Z,29.20
2018-04-07T14:51:32.332Z,29.20
2018-04-07T14:54:00.698Z,29.20
2018-04-07T14:56:28.133Z,28.70
2018-04-07T14:58:55.579Z,28.80
2018-04-07T15:01:23.057Z,29.10
2018-04-07T15:03:50.501Z,29.30
2018-04-07T15:06:17.957Z,29.20
2018-04-07T15:08:46.170Z,29.70
2018-04-07T15:11:13.614Z,30.10
2018-04-07T15:13:41.057Z,30.10
2018-04-07T15:16:08.728Z,30.30
2018-04-07T15:18:36.206Z,30.30
2018-04-07T15:21:03.658Z,30.30
2018-04-07T15:23:32.234Z,29.60
2018-04-07T15:26:00.603Z,29.30
2018-04-07T15:28:28.048Z,29.30
2018-04-07T15:30:56.242Z,29.20
2018-04-07T15:33:23.685Z,29.20
2018-04-07T15:35:51.120Z,29.30
2018-04-07T15:38:19.429Z,29.40
2018-04-07T15:40:46.863Z,29.30
2018-04-07T15:43:14.309Z,29.30
2018-04-07T15:45:42.505Z,29.00
2018-04-07T15:48:09.958Z,29.00
2018-04-07T15:50:37.421Z,29.30
2018-04-07T15:53:05.613Z,29.30
2018-04-07T15:55:33.046Z,29.20
2018-04-07T15:58:00.706Z,29.50
2018-04-07T16:00:28.160Z,29.30
2018-04-07T16:02:55.618Z,29.20
2018-04-07T16:05:23.102Z,29.10
2018-04-07T16:07:50.528Z,29.30
2018-04-07T16:10:18.741Z,29.30
2018-04-07T16:12:46.194Z,29.30
2018-04-07T16:15:13.629Z,29.10
2018-04-07T16:17:41.080Z,29.20
2018-04-07T16:20:09.314Z,28.80
2018-04-07T16:22:37.014Z,28.80
2018-04-07T16:25:06.145Z,28.60
2018-04-07T16:27:33.600Z,28.60
2018-04-07T16:30:01.067Z,28.90
2018-04-07T16:32:28.544Z,29.30
2018-04-07T16:34:56.074Z,29.20
2018-04-07T16:37:23.638Z,29.20
2018-04-07T16:39:51.080Z,29.10
2018-04-07T16:42:20.344Z,28.30
2018-04-07T16:44:47.786Z,28.30
2018-04-07T16:47:15.253Z,28.40
2018-04-07T16:49:42.693Z,28.40
2018-04-07T16:52:10.134Z,28.00
2018-04-07T16:54:37.583Z,28.10
2018-04-07T16:57:05.014Z,28.20
2018-04-07T16:59:32.462Z,28.00
2018-04-07T17:02:01.600Z,27.70
2018-04-07T17:04:29.085Z,27.60
2018-04-07T17:06:56.504Z,27.70
2018-04-07T17:09:23.981Z,27.60
2018-04-07T17:11:51.412Z,27.30
2018-04-07T17:14:18.877Z,27.00
2018-04-07T17:16:46.326Z,26.90
2018-04-07T17:19:13.770Z,26.70
2018-04-07T17:21:41.210Z,26.90
2018-04-07T17:24:09.421Z,27.00
2018-04-07T17:26:36.904Z,27.00
2018-04-07T17:29:04.437Z,27.00
2018-04-07T17:31:32.848Z,26.80
2018-04-07T17:34:00.939Z,26.70
2018-04-07T17:36:28.368Z,26.80
2018-04-07T17:38:55.829Z,27.00
2018-04-07T17:41:23.277Z,27.00
2018-04-07T17:43:50.751Z,27.00
2018-04-07T17:46:18.201Z,26.80
2018-04-07T17:48:45.670Z,26.80
2018-04-07T17:51:13.114Z,27.00
2018-04-07T17:53:40.549Z,27.10
2018-04-07T17:56:08.021Z,27.10
2018-04-07T17:58:35.474Z,27.10
2018-04-07T18:01:03.816Z,27.00
2018-04-07T18:03:31.325Z,26.80
2018-04-07T18:05:58.767Z,26.80
2018-04-07T18:08:26.432Z,26.80
2018-04-07T18:10:53.918Z,26.60
2018-04-07T18:13:21.365Z,26.60
2018-04-07T18:15:48.819Z,26.30
2018-04-07T18:18:16.292Z,26.10
2018-04-07T18:20:43.742Z,26.00
2018-04-07T18:23:11.199Z,25.60
2018-04-07T18:25:38.681Z,25.80
2018-04-07T18:28:06.561Z,26.00
2018-04-07T18:30:34.787Z,25.80
2018-04-07T18:33:03.353Z,25.70
2018-04-07T18:35:30.824Z,25.70
2018-04-07T18:37:58.250Z,25.60
2018-04-07T18:40:26.469Z,25.60
2018-04-07T18:42:53.929Z,25.60
2018-04-07T18:45:22.145Z,25.50
2018-04-07T18:47:50.368Z,25.60
2018-04-07T18:50:17.833Z,25.60
2018-04-07T18:52:45.276Z,25.60
2018-04-07T18:55:12.726Z,25.60
2018-04-07T18:57:40.214Z,25.50
2018-04-07T19:00:08.445Z,25.30
2018-04-07T19:02:36.140Z,25.20
2018-04-07T19:05:03.655Z,25.10
2018-04-07T19:07:31.090Z,25.10
2018-04-07T19:09:58.583Z,24.90
2018-04-07T19:12:26.168Z,24.80
2018-04-07T19:14:53.635Z,24.80
2018-04-07T19:17:21.084Z,24.80
2018-04-07T19:19:48.550Z,24.70
2018-04-07T19:22:16.001Z,24.70
2018-04-07T19:24:43.445Z,24.60
2018-04-07T19:27:10.894Z,24.70
2018-04-07T19:29:39.117Z,24.50
2018-04-07T19:32:06.590Z,24.50
2018-04-07T19:34:34.037Z,24.60
2018-04-07T19:37:01.537Z,24.70
2018-04-07T19:39:30.292Z,24.60
2018-04-07T19:41:57.730Z,24.60
2018-04-07T19:44:25.291Z,24.50
2018-04-07T19:46:52.737Z,24.50
2018-04-07T19:49:20.985Z,23.90
2018-04-07T19:51:48.457Z,23.90
2018-04-07T19:54:15.915Z,24.00
2018-04-07T19:56:43.382Z,23.90
2018-04-07T19:59:10.813Z,24.00
2018-04-07T20:01:38.270Z,24.10
2018-04-07T20:04:05.709Z,24.20
2018-04-07T20:06:33.965Z,24.20
2018-04-07T20:09:01.418Z,24.20
2018-04-07T20:11:28.881Z,24.20
2018-04-07T20:13:56.529Z,24.20
2018-04-07T20:16:24.991Z,24.00
2018-04-07T20:18:52.413Z,24.00
2018-04-07T20:21:19.853Z,24.00
2018-04-07T20:23:48.065Z,23.50
2018-04-07T20:26:15.530Z,23.40
2018-04-07T20:28:42.959Z,23.60
2018-04-07T20:31:11.159Z,23.60
2018-04-07T20:33:38.593Z,23.60
2018-04-07T20:36:06.796Z,23.30
2018-04-07T20:38:34.258Z,23.30
2018-04-07T20:41:01.708Z,23.20
2018-04-07T20:43:29.125Z,23.20
2018-04-07T20:45:57.347Z,23.50
2018-04-07T20:48:25.146Z,23.40
2018-04-07T20:50:52.781Z,23.30
2018-04-07T20:53:20.511Z,23.00
2018-04-07T20:55:48.730Z,23.10
2018-04-07T20:58:16.188Z,23.10
2018-04-07T21:00:43.713Z,22.80
2018-04-07T21:03:11.154Z,22.90
2018-04-07T21:05:39.370Z,22.90
2018-04-07T21:08:06.806Z,22.90
2018-04-07T21:10:34.971Z,23.00
2018-04-07T21:13:02.721Z,23.00
2018-04-07T21:15:31.091Z,23.00
2018-04-07T21:17:58.535Z,23.00
2018-04-07T21:20:26.124Z,23.10
2018-04-07T21:22:54.331Z,23.20
2018-04-07T21:25:21.787Z,23.20
2018-04-07T21:27:49.241Z,23.00
2018-04-07T21:30:16.730Z,23.00
2018-04-07T21:32:44.156Z,23.00
2018-04-07T21:35:12.356Z,23.00
2018-04-07T21:37:39.843Z,23.00
2018-04-07T21:40:07.282Z,22.90
2018-04-07T21:42:34.729Z,23.10
2018-04-07T21:45:02.331Z,23.00
2018-04-07T21:47:30.563Z,23.20
2018-04-07T21:49:57.998Z,23.10
2018-04-07T21:52:25.456Z,23.10
2018-04-07T21:54:53.721Z,22.80
2018-04-07T21:57:21.954Z,22.70
2018-04-07T21:59:49.369Z,22.70
2018-04-07T22:02:17.130Z,22.60
2018-04-07T22:04:44.589Z,22.50
2018-04-07T22:07:12.193Z,22.40
2018-04-07T22:09:39.652Z,22.40
2018-04-07T22:12:07.640Z,22.40
2018-04-07T22:14:35.840Z,22.00
2018-04-07T22:17:03.290Z,22.00
2018-04-07T22:19:30.756Z,22.10
2018-04-07T22:21:58.228Z,22.00
2018-04-07T22:24:25.769Z,22.10
2018-04-07T22:26:53.210Z,22.10
2018-04-07T22:29:21.653Z,21.80
2018-04-07T22:31:49.094Z,21.70
2018-04-07T22:34:16.549Z,21.80
2018-04-07T22:36:43.987Z,21.80
2018-04-07T22:39:11.462Z,21.70
2018-04-07T22:41:38.910Z,21.50
2018-04-07T22:44:07.122Z,21.50
2018-04-07T22:46:34.573Z,21.50
2018-04-07T22:49:02.029Z,21.70
2018-04-07T22:51:29.466Z,21.70
2018-04-07T22:53:56.902Z,21.70
2018-04-07T22:56:24.388Z,21.90
2018-04-07T22:58:51.833Z,21.80
2018-04-07T23:01:19.298Z,22.00
2018-04-07T23:03:46.872Z,22.00
2018-04-07T23:06:14.310Z,22.00
2018-04-07T23:08:41.770Z,22.10
2018-04-07T23:11:09.420Z,22.10
2018-04-07T23:13:36.874Z,22.10
2018-04-07T23:16:04.312Z,21.90
2018-04-07T23:18:32.639Z,21.50
2018-04-07T23:21:00.073Z,21.50
2018-04-07T23:23:27.525Z,21.60
2018-04-07T23:25:54.998Z,21.70
2018-04-07T23:28:22.460Z,21.90
2018-04-07T23:30:49.953Z,22.00
2018-04-07T23:33:17.416Z,22.00
2018-04-07T23:35:44.879Z,21.90
2018-04-07T23:38:12.371Z,22.00
2018-04-07T23:40:40.580Z,22.10
2018-04-07T23:43:08.056Z,22.10
2018-04-07T23:45:35.494Z,22.00
2018-04-07T23:48:02.941Z,22.00
2018-04-07T23:50:30.388Z,21.90
2018-04-07T23:52:57.858Z,21.80
2018-04-07T23:55:25.298Z,21.70
2018-04-07T23:57:52.733Z,21.50
